sensor_id;sensor_type;location;lat;lon;timestamp;P1;durP1;ratioP1;P2;durP2;ratioP2
35364;SDS011;21464;48.112;11.530;2024-03-06T00:02:07;7.63;;;6.82;;
35364;SDS011;21464;48.112;11.530;2024-03-06T00:04:33;8.00;;;7.20;;
35364;SDS011;21464;48.112;11.530;2024-03-06T00:07:00;7.78;;;7.00;;
35364;SDS011;21464;48.112;11.530;2024-03-06T00:09:26;7.70;;;6.90;;
35364;SDS011;21464;48.112;11.530;2024-03-06T00:11:53;7.45;;;6.63;;
35364;SDS011;21464;48.112;11.530;2024-03-06T00:14:20;7.97;;;7.15;;
35364;SDS011;21464;48.112;11.530;2024-03-06T00:16:50;8.13;;;7.25;;
35364;SDS011;21464;48.112;11.530;2024-03-06T00:19:17;7.40;;;6.60;;
35364;SDS011;21464;48.112;11.530;2024-03-06T00:21:43;7.65;;;6.85;;
35364;SDS011;21464;48.112;11.530;2024-03-06T00:24:13;7.57;;;6.28;;
35364;SDS011;21464;48.112;11.530;2024-03-06T00:26:43;6.97;;;5.97;;
35364;SDS011;21464;48.112;11.530;2024-03-06T00:29:10;6.45;;;5.78;;
35364;SDS011;21464;48.112;11.530;2024-03-06T00:31:42;7.45;;;6.72;;
35364;SDS011;21464;48.112;11.530;2024-03-06T00:34:09;6.43;;;5.78;;
35364;SDS011;21464;48.112;11.530;2024-03-06T00:36:36;6.85;;;6.25;;
35364;SDS011;21464;48.112;11.530;2024-03-06T00:39:02;6.80;;;6.03;;
35364;SDS011;21464;48.112;11.530;2024-03-06T00:41:30;6.88;;;6.22;;
35364;SDS011;21464;48.112;11.530;2024-03-06T00:43:57;7.40;;;6.70;;
35364;SDS011;21464;48.112;11.530;2024-03-06T00:46:23;7.80;;;6.43;;
35364;SDS011;21464;48.112;11.530;2024-03-06T00:48:49;7.00;;;6.32;;
35364;SDS011;21464;48.112;11.530;2024-03-06T00:51:16;6.95;;;6.22;;
35364;SDS011;21464;48.112;11.530;2024-03-06T00:53:42;6.70;;;6.03;;
35364;SDS011;21464;48.112;11.530;2024-03-06T00:56:08;6.80;;;6.20;;
35364;SDS011;21464;48.112;11.530;2024-03-06T00:58:34;6.88;;;6.22;;
35364;SDS011;21464;48.112;11.530;2024-03-06T01:01:00;6.25;;;5.70;;
35364;SDS011;21464;48.112;11.530;2024-03-06T01:03:27;6.65;;;6.05;;
35364;SDS011;21464;48.112;11.530;2024-03-06T01:05:53;7.15;;;6.25;;
35364;SDS011;21464;48.112;11.530;2024-03-06T01:08:23;6.75;;;6.00;;
35364;SDS011;21464;48.112;11.530;2024-03-06T01:10:51;6.30;;;5.70;;
35364;SDS011;21464;48.112;11.530;2024-03-06T01:13:18;6.03;;;5.47;;
35364;SDS011;21464;48.112;11.530;2024-03-06T01:15:45;8.18;;;6.05;;
35364;SDS011;21464;48.112;11.530;2024-03-06T01:18:11;6.65;;;5.75;;
35364;SDS011;21464;48.112;11.530;2024-03-06T01:20:37;7.07;;;6.38;;
35364;SDS011;21464;48.112;11.530;2024-03-06T01:23:04;6.72;;;6.05;;
35364;SDS011;21464;48.112;11.530;2024-03-06T01:25:30;6.13;;;5.53;;
35364;SDS011;21464;48.112;11.530;2024-03-06T01:27:56;6.65;;;6.05;;
35364;SDS011;21464;48.112;11.530;2024-03-06T01:30:23;6.00;;;5.32;;
35364;SDS011;21464;48.112;11.530;2024-03-06T01:32:49;6.10;;;5.50;;
35364;SDS011;21464;48.112;11.530;2024-03-06T01:35:15;5.88;;;5.28;;
35364;SDS011;21464;48.112;11.530;2024-03-06T01:37:42;5.90;;;5.40;;
35364;SDS011;21464;48.112;11.530;2024-03-06T01:40:09;5.85;;;5.35;;
35364;SDS011;21464;48.112;11.530;2024-03-06T01:42:36;6.03;;;5.43;;
35364;SDS011;21464;48.112;11.530;2024-03-06T01:45:03;6.25;;;5.75;;
35364;SDS011;21464;48.112;11.530;2024-03-06T01:47:30;6.53;;;5.93;;
35364;SDS011;21464;48.112;11.530;2024-03-06T01:49:56;6.32;;;5.70;;
35364;SDS011;21464;48.112;11.530;2024-03-06T01:52:22;5.78;;;5.28;;
35364;SDS011;21464;48.112;11.530;2024-03-06T01:54:49;5.63;;;5.13;;
35364;SDS011;21464;48.112;11.530;2024-03-06T01:57:16;6.00;;;5.50;;
35364;SDS011;21464;48.112;11.530;2024-03-06T01:59:43;5.95;;;5.40;;
35364;SDS011;21464;48.112;11.530;2024-03-06T02:02:09;6.07;;;5.25;;
35364;SDS011;21464;48.112;11.530;2024-03-06T02:04:37;5.55;;;5.05;;
35364;SDS011;21464;48.112;11.530;2024-03-06T02:07:05;6.47;;;5.88;;
35364;SDS011;21464;48.112;11.530;2024-03-06T02:09:34;5.55;;;5.05;;
35364;SDS011;21464;48.112;11.530;2024-03-06T02:12:00;5.53;;;4.97;;
35364;SDS011;21464;48.112;11.530;2024-03-06T02:14:26;5.43;;;4.93;;
35364;SDS011;21464;48.112;11.530;2024-03-06T02:16:53;5.95;;;5.45;;
35364;SDS011;21464;48.112;11.530;2024-03-06T02:19:19;5.43;;;4.93;;
35364;SDS011;21464;48.112;11.530;2024-03-06T02:21:45;4.32;;;3.92;;
35364;SDS011;21464;48.112;11.530;2024-03-06T02:24:12;5.63;;;5.00;;
35364;SDS011;21464;48.112;11.530;2024-03-06T02:26:40;5.22;;;4.72;;
35364;SDS011;21464;48.112;11.530;2024-03-06T02:29:06;5.15;;;4.65;;
35364;SDS011;21464;48.112;11.530;2024-03-06T02:31:34;4.85;;;4.38;;
35364;SDS011;21464;48.112;11.530;2024-03-06T02:34:00;5.18;;;4.75;;
35364;SDS011;21464;48.112;11.530;2024-03-06T02:36:30;4.95;;;4.55;;
35364;SDS011;21464;48.112;11.530;2024-03-06T02:38:58;6.00;;;5.40;;
35364;SDS011;21464;48.112;11.530;2024-03-06T02:41:24;5.88;;;5.13;;
35364;SDS011;21464;48.112;11.530;2024-03-06T02:43:50;5.50;;;5.00;;
35364;SDS011;21464;48.112;11.530;2024-03-06T02:46:18;5.20;;;4.70;;
35364;SDS011;21464;48.112;11.530;2024-03-06T02:48:44;6.10;;;5.50;;
35364;SDS011;21464;48.112;11.530;2024-03-06T02:51:11;6.28;;;5.78;;
35364;SDS011;21464;48.112;11.530;2024-03-06T02:53:37;6.28;;;5.68;;
35364;SDS011;21464;48.112;11.530;2024-03-06T02:56:03;6.00;;;5.40;;
35364;SDS011;21464;48.112;11.530;2024-03-06T02:58:31;5.10;;;4.60;;
35364;SDS011;21464;48.112;11.530;2024-03-06T03:00:57;4.82;;;4.32;;
35364;SDS011;21464;48.112;11.530;2024-03-06T03:03:23;4.32;;;3.92;;
35364;SDS011;21464;48.112;11.530;2024-03-06T03:05:50;4.25;;;3.85;;
35364;SDS011;21464;48.112;11.530;2024-03-06T03:08:17;4.40;;;4.00;;
35364;SDS011;21464;48.112;11.530;2024-03-06T03:10:43;4.32;;;3.92;;
35364;SDS011;21464;48.112;11.530;2024-03-06T03:13:10;4.00;;;3.70;;
35364;SDS011;21464;48.112;11.530;2024-03-06T03:15:36;3.97;;;3.67;;
35364;SDS011;21464;48.112;11.530;2024-03-06T03:18:03;4.32;;;3.92;;
35364;SDS011;21464;48.112;11.530;2024-03-06T03:20:29;4.15;;;3.75;;
35364;SDS011;21464;48.112;11.530;2024-03-06T03:22:55;4.18;;;3.70;;
35364;SDS011;21464;48.112;11.530;2024-03-06T03:25:22;4.18;;;3.80;;
35364;SDS011;21464;48.112;11.530;2024-03-06T03:27:48;4.47;;;4.07;;
35364;SDS011;21464;48.112;11.530;2024-03-06T03:30:14;4.20;;;3.83;;
35364;SDS011;21464;48.112;11.530;2024-03-06T03:32:42;4.30;;;3.92;;
35364;SDS011;21464;48.112;11.530;2024-03-06T03:35:08;3.95;;;3.65;;
35364;SDS011;21464;48.112;11.530;2024-03-06T03:37:34;4.53;;;4.13;;
35364;SDS011;21464;48.112;11.530;2024-03-06T03:40:00;3.78;;;3.47;;
35364;SDS011;21464;48.112;11.530;2024-03-06T03:42:26;4.38;;;3.97;;
35364;SDS011;21464;48.112;11.530;2024-03-06T03:44:53;4.03;;;3.72;;
35364;SDS011;21464;48.112;11.530;2024-03-06T03:47:19;3.80;;;3.50;;
35364;SDS011;21464;48.112;11.530;2024-03-06T03:49:45;4.20;;;3.80;;
35364;SDS011;21464;48.112;11.530;2024-03-06T03:52:12;4.22;;;3.85;;
35364;SDS011;21464;48.112;11.530;2024-03-06T03:54:39;4.22;;;3.83;;
35364;SDS011;21464;48.112;11.530;2024-03-06T03:57:05;3.95;;;3.65;;
35364;SDS011;21464;48.112;11.530;2024-03-06T03:59:34;4.03;;;3.72;;
35364;SDS011;21464;48.112;11.530;2024-03-06T04:02:00;4.00;;;3.70;;
35364;SDS011;21464;48.112;11.530;2024-03-06T04:04:26;3.85;;;3.55;;
35364;SDS011;21464;48.112;11.530;2024-03-06T04:06:52;3.70;;;3.40;;
35364;SDS011;21464;48.112;11.530;2024-03-06T04:09:19;3.78;;;3.47;;
35364;SDS011;21464;48.112;11.530;2024-03-06T04:11:45;3.75;;;3.45;;
35364;SDS011;21464;48.112;11.530;2024-03-06T04:14:11;9.48;;;7.80;;
35364;SDS011;21464;48.112;11.530;2024-03-06T04:16:37;10.30;;;8.35;;
35364;SDS011;21464;48.112;11.530;2024-03-06T04:19:04;4.22;;;3.90;;
35364;SDS011;21464;48.112;11.530;2024-03-06T04:21:30;4.10;;;3.70;;
35364;SDS011;21464;48.112;11.530;2024-03-06T04:23:57;4.18;;;3.55;;
35364;SDS011;21464;48.112;11.530;2024-03-06T04:26:26;3.75;;;3.45;;
35364;SDS011;21464;48.112;11.530;2024-03-06T04:28:53;3.60;;;3.30;;
35364;SDS011;21464;48.112;11.530;2024-03-06T04:31:19;3.50;;;3.20;;
35364;SDS011;21464;48.112;11.530;2024-03-06T04:33:45;3.80;;;3.50;;
35364;SDS011;21464;48.112;11.530;2024-03-06T04:36:12;4.78;;;3.78;;
35364;SDS011;21464;48.112;11.530;2024-03-06T04:38:39;3.55;;;3.25;;
35364;SDS011;21464;48.112;11.530;2024-03-06T04:41:05;3.38;;;3.08;;
35364;SDS011;21464;48.112;11.530;2024-03-06T04:43:32;4.35;;;3.47;;
35364;SDS011;21464;48.112;11.530;2024-03-06T04:45:59;3.47;;;3.17;;
35364;SDS011;21464;48.112;11.530;2024-03-06T04:48:25;3.63;;;3.33;;
35364;SDS011;21464;48.112;11.530;2024-03-06T04:50:51;3.30;;;3.10;;
35364;SDS011;21464;48.112;11.530;2024-03-06T04:53:18;3.17;;;2.97;;
35364;SDS011;21464;48.112;11.530;2024-03-06T04:55:46;3.60;;;3.30;;
35364;SDS011;21464;48.112;11.530;2024-03-06T04:58:12;3.63;;;3.33;;
35364;SDS011;21464;48.112;11.530;2024-03-06T05:00:39;3.72;;;3.42;;
35364;SDS011;21464;48.112;11.530;2024-03-06T05:03:05;3.88;;;3.58;;
35364;SDS011;21464;48.112;11.530;2024-03-06T05:05:31;7.38;;;6.03;;
35364;SDS011;21464;48.112;11.530;2024-03-06T05:07:58;3.75;;;3.45;;
35364;SDS011;21464;48.112;11.530;2024-03-06T05:10:24;3.60;;;3.30;;
35364;SDS011;21464;48.112;11.530;2024-03-06T05:12:52;2.95;;;2.75;;
35364;SDS011;21464;48.112;11.530;2024-03-06T05:15:18;3.78;;;3.47;;
35364;SDS011;21464;48.112;11.530;2024-03-06T05:17:45;3.40;;;3.10;;
35364;SDS011;21464;48.112;11.530;2024-03-06T05:20:11;3.35;;;3.05;;
35364;SDS011;21464;48.112;11.530;2024-03-06T05:22:38;3.72;;;3.40;;
35364;SDS011;21464;48.112;11.530;2024-03-06T05:25:04;3.20;;;2.90;;
35364;SDS011;21464;48.112;11.530;2024-03-06T05:27:31;3.72;;;3.42;;
35364;SDS011;21464;48.112;11.530;2024-03-06T05:29:58;3.78;;;3.47;;
35364;SDS011;21464;48.112;11.530;2024-03-06T05:32:24;3.22;;;3.03;;
35364;SDS011;21464;48.112;11.530;2024-03-06T05:34:50;5.15;;;4.65;;
35364;SDS011;21464;48.112;11.530;2024-03-06T05:37:16;3.38;;;3.15;;
35364;SDS011;21464;48.112;11.530;2024-03-06T05:39:43;4.22;;;3.30;;
35364;SDS011;21464;48.112;11.530;2024-03-06T05:42:09;3.08;;;2.83;;
35364;SDS011;21464;48.112;11.530;2024-03-06T05:44:35;3.10;;;2.90;;
35364;SDS011;21464;48.112;11.530;2024-03-06T05:47:02;3.30;;;3.00;;
35364;SDS011;21464;48.112;11.530;2024-03-06T05:49:28;2.65;;;2.45;;
35364;SDS011;21464;48.112;11.530;2024-03-06T05:51:55;3.40;;;3.10;;
35364;SDS011;21464;48.112;11.530;2024-03-06T05:54:22;3.40;;;3.10;;
35364;SDS011;21464;48.112;11.530;2024-03-06T05:56:48;3.03;;;2.83;;
35364;SDS011;21464;48.112;11.530;2024-03-06T05:59:18;2.90;;;2.70;;
35364;SDS011;21464;48.112;11.530;2024-03-06T06:01:44;3.13;;;2.83;;
35364;SDS011;21464;48.112;11.530;2024-03-06T06:04:11;3.17;;;2.97;;
35364;SDS011;21464;48.112;11.530;2024-03-06T06:06:39;3.28;;;3.00;;
35364;SDS011;21464;48.112;11.530;2024-03-06T06:09:06;3.30;;;3.00;;
35364;SDS011;21464;48.112;11.530;2024-03-06T06:11:35;3.10;;;2.90;;
35364;SDS011;21464;48.112;11.530;2024-03-06T06:14:01;3.40;;;3.10;;
35364;SDS011;21464;48.112;11.530;2024-03-06T06:16:34;2.85;;;2.65;;
35364;SDS011;21464;48.112;11.530;2024-03-06T06:19:01;2.70;;;2.50;;
35364;SDS011;21464;48.112;11.530;2024-03-06T06:21:27;2.45;;;2.30;;
35364;SDS011;21464;48.112;11.530;2024-03-06T06:23:53;3.08;;;2.80;;
35364;SDS011;21464;48.112;11.530;2024-03-06T06:26:20;3.20;;;2.90;;
35364;SDS011;21464;48.112;11.530;2024-03-06T06:28:46;3.00;;;2.80;;
35364;SDS011;21464;48.112;11.530;2024-03-06T06:31:12;2.80;;;2.60;;
35364;SDS011;21464;48.112;11.530;2024-03-06T06:33:39;2.85;;;2.63;;
35364;SDS011;21464;48.112;11.530;2024-03-06T06:36:05;2.65;;;2.45;;
35364;SDS011;21464;48.112;11.530;2024-03-06T06:38:32;3.00;;;2.70;;
35364;SDS011;21464;48.112;11.530;2024-03-06T06:40:58;2.80;;;2.58;;
35364;SDS011;21464;48.112;11.530;2024-03-06T06:43:24;3.08;;;2.78;;
35364;SDS011;21464;48.112;11.530;2024-03-06T06:45:51;2.85;;;2.60;;
35364;SDS011;21464;48.112;11.530;2024-03-06T06:48:17;2.72;;;2.53;;
35364;SDS011;21464;48.112;11.530;2024-03-06T06:50:44;2.72;;;2.53;;
35364;SDS011;21464;48.112;11.530;2024-03-06T06:53:13;2.63;;;2.42;;
35364;SDS011;21464;48.112;11.530;2024-03-06T06:55:40;2.92;;;2.70;;
35364;SDS011;21464;48.112;11.530;2024-03-06T06:58:06;2.72;;;2.50;;
35364;SDS011;21464;48.112;11.530;2024-03-06T07:00:33;2.45;;;2.25;;
35364;SDS011;21464;48.112;11.530;2024-03-06T07:03:00;2.90;;;2.70;;
35364;SDS011;21464;48.112;11.530;2024-03-06T07:05:26;2.30;;;2.10;;
35364;SDS011;21464;48.112;11.530;2024-03-06T07:07:52;2.50;;;2.30;;
35364;SDS011;21464;48.112;11.530;2024-03-06T07:10:19;2.65;;;2.30;;
35364;SDS011;21464;48.112;11.530;2024-03-06T07:12:45;2.75;;;2.55;;
35364;SDS011;21464;48.112;11.530;2024-03-06T07:15:11;2.58;;;2.35;;
35364;SDS011;21464;48.112;11.530;2024-03-06T07:17:38;2.50;;;2.30;;
35364;SDS011;21464;48.112;11.530;2024-03-06T07:20:04;2.60;;;2.20;;
35364;SDS011;21464;48.112;11.530;2024-03-06T07:22:32;2.63;;;2.42;;
35364;SDS011;21464;48.112;11.530;2024-03-06T07:25:00;2.63;;;2.42;;
35364;SDS011;21464;48.112;11.530;2024-03-06T07:27:28;2.50;;;2.30;;
35364;SDS011;21464;48.112;11.530;2024-03-06T07:29:54;2.40;;;2.20;;
35364;SDS011;21464;48.112;11.530;2024-03-06T07:32:20;2.42;;;2.30;;
35364;SDS011;21464;48.112;11.530;2024-03-06T07:34:47;2.40;;;2.20;;
35364;SDS011;21464;48.112;11.530;2024-03-06T07:37:13;2.10;;;2.00;;
35364;SDS011;21464;48.112;11.530;2024-03-06T07:39:40;2.30;;;2.20;;
35364;SDS011;21464;48.112;11.530;2024-03-06T07:42:07;2.30;;;2.10;;
35364;SDS011;21464;48.112;11.530;2024-03-06T07:44:33;2.20;;;2.10;;
35364;SDS011;21464;48.112;11.530;2024-03-06T07:47:02;2.20;;;2.00;;
35364;SDS011;21464;48.112;11.530;2024-03-06T07:49:29;2.42;;;2.30;;
35364;SDS011;21464;48.112;11.530;2024-03-06T07:51:57;2.30;;;2.10;;
35364;SDS011;21464;48.112;11.530;2024-03-06T07:54:23;2.40;;;2.20;;
35364;SDS011;21464;48.112;11.530;2024-03-06T07:56:50;2.42;;;2.22;;
35364;SDS011;21464;48.112;11.530;2024-03-06T07:59:17;2.20;;;2.05;;
35364;SDS011;21464;48.112;11.530;2024-03-06T08:01:44;2.30;;;2.10;;
35364;SDS011;21464;48.112;11.530;2024-03-06T08:04:10;2.15;;;2.05;;
35364;SDS011;21464;48.112;11.530;2024-03-06T08:06:36;2.25;;;2.05;;
35364;SDS011;21464;48.112;11.530;2024-03-06T08:09:03;2.30;;;2.10;;
35364;SDS011;21464;48.112;11.530;2024-03-06T08:11:30;2.50;;;2.30;;
35364;SDS011;21464;48.112;11.530;2024-03-06T08:14:00;2.17;;;2.08;;
35364;SDS011;21464;48.112;11.530;2024-03-06T08:16:27;2.13;;;2.03;;
35364;SDS011;21464;48.112;11.530;2024-03-06T08:18:55;2.20;;;2.10;;
35364;SDS011;21464;48.112;11.530;2024-03-06T08:21:25;2.35;;;2.13;;
35364;SDS011;21464;48.112;11.530;2024-03-06T08:23:52;2.25;;;2.05;;
35364;SDS011;21464;48.112;11.530;2024-03-06T08:26:18;2.75;;;2.10;;
35364;SDS011;21464;48.112;11.530;2024-03-06T08:28:44;2.33;;;2.10;;
35364;SDS011;21464;48.112;11.530;2024-03-06T08:31:10;2.10;;;2.00;;
35364;SDS011;21464;48.112;11.530;2024-03-06T08:33:37;2.38;;;2.17;;
35364;SDS011;21464;48.112;11.530;2024-03-06T08:36:03;2.17;;;2.08;;
35364;SDS011;21464;48.112;11.530;2024-03-06T08:38:30;2.55;;;2.13;;
35364;SDS011;21464;48.112;11.530;2024-03-06T08:40:56;2.35;;;1.95;;
35364;SDS011;21464;48.112;11.530;2024-03-06T08:43:22;2.00;;;1.90;;
35364;SDS011;21464;48.112;11.530;2024-03-06T08:45:49;3.30;;;2.30;;
35364;SDS011;21464;48.112;11.530;2024-03-06T08:48:15;1.88;;;1.77;;
35364;SDS011;21464;48.112;11.530;2024-03-06T08:50:41;2.25;;;2.15;;
35364;SDS011;21464;48.112;11.530;2024-03-06T08:53:07;2.03;;;1.90;;
35364;SDS011;21464;48.112;11.530;2024-03-06T08:55:35;2.30;;;2.10;;
35364;SDS011;21464;48.112;11.530;2024-03-06T08:58:01;1.90;;;1.80;;
35364;SDS011;21464;48.112;11.530;2024-03-06T09:00:27;2.17;;;2.08;;
35364;SDS011;21464;48.112;11.530;2024-03-06T09:02:54;1.90;;;1.80;;
35364;SDS011;21464;48.112;11.530;2024-03-06T09:05:20;1.73;;;1.63;;
35364;SDS011;21464;48.112;11.530;2024-03-06T09:07:47;2.45;;;2.00;;
35364;SDS011;21464;48.112;11.530;2024-03-06T09:10:14;2.28;;;2.08;;
35364;SDS011;21464;48.112;11.530;2024-03-06T09:12:40;1.83;;;1.73;;
35364;SDS011;21464;48.112;11.530;2024-03-06T09:15:07;2.45;;;2.25;;
35364;SDS011;21464;48.112;11.530;2024-03-06T09:17:34;2.00;;;1.80;;
35364;SDS011;21464;48.112;11.530;2024-03-06T09:20:00;1.90;;;1.80;;
35364;SDS011;21464;48.112;11.530;2024-03-06T09:22:36;2.20;;;2.10;;
35364;SDS011;21464;48.112;11.530;2024-03-06T09:25:05;1.70;;;1.60;;
35364;SDS011;21464;48.112;11.530;2024-03-06T09:27:35;1.80;;;1.70;;
35364;SDS011;21464;48.112;11.530;2024-03-06T09:30:02;2.05;;;1.92;;
35364;SDS011;21464;48.112;11.530;2024-03-06T09:32:29;1.90;;;1.80;;
35364;SDS011;21464;48.112;11.530;2024-03-06T09:34:58;2.03;;;1.90;;
35364;SDS011;21464;48.112;11.530;2024-03-06T09:37:24;1.83;;;1.73;;
35364;SDS011;21464;48.112;11.530;2024-03-06T09:39:50;1.88;;;1.73;;
35364;SDS011;21464;48.112;11.530;2024-03-06T09:42:17;1.80;;;1.70;;
35364;SDS011;21464;48.112;11.530;2024-03-06T09:44:43;1.90;;;1.80;;
35364;SDS011;21464;48.112;11.530;2024-03-06T09:47:12;1.77;;;1.67;;
35364;SDS011;21464;48.112;11.530;2024-03-06T09:49:40;1.75;;;1.65;;
35364;SDS011;21464;48.112;11.530;2024-03-06T09:52:06;2.42;;;1.77;;
35364;SDS011;21464;48.112;11.530;2024-03-06T09:54:33;1.60;;;1.50;;
35364;SDS011;21464;48.112;11.530;2024-03-06T09:56:59;2.10;;;1.90;;
35364;SDS011;21464;48.112;11.530;2024-03-06T09:59:26;2.20;;;1.73;;
35364;SDS011;21464;48.112;11.530;2024-03-06T10:01:53;1.80;;;1.70;;
35364;SDS011;21464;48.112;11.530;2024-03-06T10:04:21;2.08;;;1.90;;
35364;SDS011;21464;48.112;11.530;2024-03-06T10:06:50;2.08;;;1.60;;
35364;SDS011;21464;48.112;11.530;2024-03-06T10:09:20;2.22;;;1.98;;
35364;SDS011;21464;48.112;11.530;2024-03-06T10:11:47;1.67;;;1.58;;
35364;SDS011;21464;48.112;11.530;2024-03-06T10:14:14;3.65;;;1.60;;
35364;SDS011;21464;48.112;11.530;2024-03-06T10:19:26;1.92;;;1.83;;
35364;SDS011;21464;48.112;11.530;2024-03-06T10:21:54;2.05;;;1.88;;
35364;SDS011;21464;48.112;11.530;2024-03-06T10:24:23;1.70;;;1.60;;
35364;SDS011;21464;48.112;11.530;2024-03-06T10:26:51;1.83;;;1.73;;
35364;SDS011;21464;48.112;11.530;2024-03-06T10:29:20;2.05;;;1.65;;
35364;SDS011;21464;48.112;11.530;2024-03-06T10:31:48;1.67;;;1.58;;
35364;SDS011;21464;48.112;11.530;2024-03-06T10:34:16;1.83;;;1.73;;
35364;SDS011;21464;48.112;11.530;2024-03-06T10:36:43;1.80;;;1.70;;
35364;SDS011;21464;48.112;11.530;2024-03-06T10:39:11;1.80;;;1.70;;
35364;SDS011;21464;48.112;11.530;2024-03-06T10:41:40;1.80;;;1.55;;
35364;SDS011;21464;48.112;11.530;2024-03-06T10:44:11;1.60;;;1.50;;
35364;SDS011;21464;48.112;11.530;2024-03-06T10:46:43;1.80;;;1.70;;
35364;SDS011;21464;48.112;11.530;2024-03-06T10:49:13;1.80;;;1.70;;
35364;SDS011;21464;48.112;11.530;2024-03-06T10:51:40;1.70;;;1.60;;
35364;SDS011;21464;48.112;11.530;2024-03-06T10:54:09;1.58;;;1.45;;
35364;SDS011;21464;48.112;11.530;2024-03-06T10:56:40;1.75;;;1.65;;
35364;SDS011;21464;48.112;11.530;2024-03-06T10:59:10;1.55;;;1.45;;
35364;SDS011;21464;48.112;11.530;2024-03-06T11:01:40;1.75;;;1.65;;
35364;SDS011;21464;48.112;11.530;2024-03-06T11:04:09;1.35;;;1.30;;
35364;SDS011;21464;48.112;11.530;2024-03-06T11:06:37;1.70;;;1.60;;
35364;SDS011;21464;48.112;11.530;2024-03-06T11:09:04;1.60;;;1.50;;
35364;SDS011;21464;48.112;11.530;2024-03-06T11:11:32;2.22;;;1.52;;
35364;SDS011;21464;48.112;11.530;2024-03-06T11:14:03;1.50;;;1.40;;
35364;SDS011;21464;48.112;11.530;2024-03-06T11:16:30;1.50;;;1.40;;
35364;SDS011;21464;48.112;11.530;2024-03-06T11:19:08;1.70;;;1.60;;
35364;SDS011;21464;48.112;11.530;2024-03-06T11:21:35;2.03;;;1.67;;
35364;SDS011;21464;48.112;11.530;2024-03-06T11:24:13;1.70;;;1.60;;
35364;SDS011;21464;48.112;11.530;2024-03-06T11:27:17;1.77;;;1.67;;
35364;SDS011;21464;48.112;11.530;2024-03-06T11:32:38;1.83;;;1.40;;
35364;SDS011;21464;48.112;11.530;2024-03-06T11:35:23;2.05;;;1.85;;
35364;SDS011;21464;48.112;11.530;2024-03-06T11:37:49;2.60;;;1.60;;
35364;SDS011;21464;48.112;11.530;2024-03-06T11:40:24;1.77;;;1.48;;
35364;SDS011;21464;48.112;11.530;2024-03-06T11:42:51;2.20;;;1.95;;
35364;SDS011;21464;48.112;11.530;2024-03-06T11:45:18;3.55;;;2.00;;
35364;SDS011;21464;48.112;11.530;2024-03-06T11:48:01;1.75;;;1.65;;
35364;SDS011;21464;48.112;11.530;2024-03-06T11:50:28;2.00;;;1.80;;
35364;SDS011;21464;48.112;11.530;2024-03-06T11:52:57;1.77;;;1.60;;
35364;SDS011;21464;48.112;11.530;2024-03-06T11:55:23;3.05;;;1.85;;
35364;SDS011;21464;48.112;11.530;2024-03-06T11:57:53;2.88;;;1.95;;
35364;SDS011;21464;48.112;11.530;2024-03-06T12:00:24;2.38;;;1.95;;
35364;SDS011;21464;48.112;11.530;2024-03-06T12:02:51;2.17;;;1.90;;
35364;SDS011;21464;48.112;11.530;2024-03-06T12:05:17;2.10;;;1.90;;
35364;SDS011;21464;48.112;11.530;2024-03-06T12:07:44;2.15;;;1.90;;
35364;SDS011;21464;48.112;11.530;2024-03-06T12:10:12;1.70;;;1.60;;
35364;SDS011;21464;48.112;11.530;2024-03-06T12:12:40;2.30;;;1.77;;
35364;SDS011;21464;48.112;11.530;2024-03-06T12:15:08;2.03;;;1.83;;
35364;SDS011;21464;48.112;11.530;2024-03-06T12:17:42;2.05;;;1.67;;
35364;SDS011;21464;48.112;11.530;2024-03-06T12:20:12;2.35;;;1.77;;
35364;SDS011;21464;48.112;11.530;2024-03-06T12:22:48;2.55;;;1.52;;
35364;SDS011;21464;48.112;11.530;2024-03-06T12:25:24;1.63;;;1.52;;
35364;SDS011;21464;48.112;11.530;2024-03-06T12:27:53;2.63;;;2.00;;
35364;SDS011;21464;48.112;11.530;2024-03-06T12:30:21;1.73;;;1.63;;
35364;SDS011;21464;48.112;11.530;2024-03-06T12:32:57;2.00;;;1.88;;
35364;SDS011;21464;48.112;11.530;2024-03-06T12:35:25;2.35;;;1.67;;
35364;SDS011;21464;48.112;11.530;2024-03-06T12:37:52;1.63;;;1.52;;
35364;SDS011;21464;48.112;11.530;2024-03-06T12:40:21;2.20;;;1.90;;
35364;SDS011;21464;48.112;11.530;2024-03-06T12:42:48;2.13;;;1.90;;
35364;SDS011;21464;48.112;11.530;2024-03-06T12:45:15;1.67;;;1.58;;
35364;SDS011;21464;48.112;11.530;2024-03-06T12:47:42;2.42;;;2.05;;
35364;SDS011;21464;48.112;11.530;2024-03-06T12:50:09;2.03;;;1.83;;
35364;SDS011;21464;48.112;11.530;2024-03-06T12:52:36;1.92;;;1.80;;
35364;SDS011;21464;48.112;11.530;2024-03-06T12:55:03;2.20;;;1.80;;
35364;SDS011;21464;48.112;11.530;2024-03-06T12:57:31;1.90;;;1.80;;
35364;SDS011;21464;48.112;11.530;2024-03-06T12:59:58;1.80;;;1.70;;
35364;SDS011;21464;48.112;11.530;2024-03-06T13:02:24;1.95;;;1.80;;
35364;SDS011;21464;48.112;11.530;2024-03-06T13:04:51;2.50;;;1.90;;
35364;SDS011;21464;48.112;11.530;2024-03-06T13:07:17;4.10;;;2.10;;
35364;SDS011;21464;48.112;11.530;2024-03-06T13:09:44;2.22;;;1.83;;
35364;SDS011;21464;48.112;11.530;2024-03-06T13:12:11;1.77;;;1.65;;
35364;SDS011;21464;48.112;11.530;2024-03-06T13:14:37;2.50;;;1.80;;
35364;SDS011;21464;48.112;11.530;2024-03-06T13:17:03;2.92;;;1.70;;
35364;SDS011;21464;48.112;11.530;2024-03-06T13:19:32;1.70;;;1.60;;
35364;SDS011;21464;48.112;11.530;2024-03-06T13:21:58;2.35;;;1.90;;
35364;SDS011;21464;48.112;11.530;2024-03-06T13:24:24;2.83;;;1.60;;
35364;SDS011;21464;48.112;11.530;2024-03-06T13:26:50;1.80;;;1.70;;
35364;SDS011;21464;48.112;11.530;2024-03-06T13:29:16;2.63;;;1.63;;
35364;SDS011;21464;48.112;11.530;2024-03-06T13:31:43;1.70;;;1.60;;
35364;SDS011;21464;48.112;11.530;2024-03-06T13:34:09;2.35;;;1.63;;
35364;SDS011;21464;48.112;11.530;2024-03-06T13:36:35;2.88;;;1.70;;
35364;SDS011;21464;48.112;11.530;2024-03-06T13:39:02;2.50;;;1.90;;
35364;SDS011;21464;48.112;11.530;2024-03-06T13:41:28;2.20;;;1.95;;
35364;SDS011;21464;48.112;11.530;2024-03-06T13:43:55;2.10;;;1.67;;
35364;SDS011;21464;48.112;11.530;2024-03-06T13:46:22;1.73;;;1.63;;
35364;SDS011;21464;48.112;11.530;2024-03-06T13:48:48;2.45;;;2.20;;
35364;SDS011;21464;48.112;11.530;2024-03-06T13:51:14;2.42;;;1.67;;
35364;SDS011;21464;48.112;11.530;2024-03-06T13:53:43;1.80;;;1.55;;
35364;SDS011;21464;48.112;11.530;2024-03-06T13:56:10;2.03;;;1.67;;
35364;SDS011;21464;48.112;11.530;2024-03-06T13:58:36;1.60;;;1.45;;
35364;SDS011;21464;48.112;11.530;2024-03-06T14:01:02;1.73;;;1.60;;
35364;SDS011;21464;48.112;11.530;2024-03-06T14:03:35;2.03;;;1.75;;
35364;SDS011;21464;48.112;11.530;2024-03-06T14:06:03;2.28;;;1.67;;
35364;SDS011;21464;48.112;11.530;2024-03-06T14:08:30;1.85;;;1.65;;
35364;SDS011;21464;48.112;11.530;2024-03-06T14:10:56;1.80;;;1.70;;
35364;SDS011;21464;48.112;11.530;2024-03-06T14:13:22;1.60;;;1.50;;
35364;SDS011;21464;48.112;11.530;2024-03-06T14:15:49;2.90;;;1.83;;
35364;SDS011;21464;48.112;11.530;2024-03-06T14:18:15;1.60;;;1.50;;
35364;SDS011;21464;48.112;11.530;2024-03-06T14:20:42;1.80;;;1.58;;
35364;SDS011;21464;48.112;11.530;2024-03-06T14:23:08;1.65;;;1.55;;
35364;SDS011;21464;48.112;11.530;2024-03-06T14:25:34;1.70;;;1.60;;
35364;SDS011;21464;48.112;11.530;2024-03-06T14:28:03;3.00;;;1.90;;
35364;SDS011;21464;48.112;11.530;2024-03-06T14:30:30;2.15;;;1.60;;
35364;SDS011;21464;48.112;11.530;2024-03-06T14:32:56;2.38;;;1.67;;
35364;SDS011;21464;48.112;11.530;2024-03-06T14:35:22;2.47;;;1.77;;
35364;SDS011;21464;48.112;11.530;2024-03-06T14:37:49;2.10;;;1.52;;
35364;SDS011;21464;48.112;11.530;2024-03-06T14:40:15;1.88;;;1.77;;